createdAt,value
2023-03-04T00:00:46.192Z,18.30
2023-03-04T00:01:27.899Z,19.07
2023-03-04T00:02:09.657Z,17.37
2023-03-04T00:02:51.388Z,15.90
2023-03-04T00:03:33.026Z,15.93
2023-03-04T00:04:14.926Z,15.00
2023-03-04T00:04:56.503Z,18.40
2023-03-04T00:05:38.207Z,16.40
2023-03-04T00:06:19.886Z,14.90
2023-03-04T00:07:01.506Z,16.73
2023-03-04T00:07:43.090Z,16.70
2023-03-04T00:08:24.810Z,18.60
2023-03-04T00:09:06.451Z,15.17
2023-03-04T00:09:48.234Z,16.23
2023-03-04T00:10:29.944Z,15.50
2023-03-04T00:11:11.627Z,15.10
2023-03-04T00:11:53.301Z,13.90
2023-03-04T00:12:34.928Z,17.97
2023-03-04T00:13:16.923Z,17.67
2023-03-04T00:13:59.067Z,17.17
2023-03-04T00:14:41.438Z,17.27
2023-03-04T00:15:23.191Z,19.93
2023-03-04T00:16:05.126Z,18.00
2023-03-04T00:16:46.873Z,17.87
2023-03-04T00:17:30.061Z,17.17
2023-03-04T00:18:11.691Z,19.00
2023-03-04T00:18:54.298Z,18.47
2023-03-04T00:19:36.058Z,17.57
2023-03-04T00:20:17.847Z,18.63
2023-03-04T00:20:59.454Z,18.57
2023-03-04T00:21:41.116Z,16.47
2023-03-04T00:22:22.722Z,16.40
2023-03-04T00:23:04.345Z,17.27
2023-03-04T00:23:45.969Z,17.77
2023-03-04T00:24:27.589Z,16.40
2023-03-04T00:25:09.571Z,17.37
2023-03-04T00:25:51.143Z,16.90
2023-03-04T00:26:33.012Z,16.07
2023-03-04T00:27:14.711Z,16.23
2023-03-04T00:27:58.269Z,14.47
2023-03-04T00:28:40.292Z,14.70
2023-03-04T00:29:22.145Z,16.03
2023-03-04T00:30:05.574Z,18.03
2023-03-04T00:30:47.223Z,17.63
2023-03-04T00:31:29.590Z,18.70
2023-03-04T00:32:11.320Z,18.67
2023-03-04T00:32:53.009Z,18.57
2023-03-04T00:33:35.220Z,16.20
2023-03-04T00:34:16.997Z,16.47
2023-03-04T00:34:58.620Z,17.43
2023-03-04T00:35:40.521Z,18.53
2023-03-04T00:36:22.145Z,15.20
2023-03-04T00:37:04.071Z,16.63
2023-03-04T00:37:45.697Z,15.37
2023-03-04T00:38:27.398Z,16.43
2023-03-04T00:39:09.192Z,17.47
2023-03-04T00:39:50.792Z,16.13
2023-03-04T00:40:32.482Z,15.90
2023-03-04T00:41:14.212Z,17.17
2023-03-04T00:41:56.568Z,17.73
2023-03-04T00:42:38.268Z,19.23
2023-03-04T00:43:20.216Z,19.90
2023-03-04T00:44:01.790Z,17.03
2023-03-04T00:44:43.490Z,17.07
2023-03-04T00:45:25.135Z,16.30
2023-03-04T00:46:07.243Z,16.47
2023-03-04T00:46:48.941Z,16.67
2023-03-04T00:47:30.620Z,16.60
2023-03-04T00:48:12.768Z,15.87
2023-03-04T00:48:54.396Z,15.47
2023-03-04T00:49:37.958Z,16.77
2023-03-04T00:50:19.930Z,15.17
2023-03-04T00:51:01.598Z,18.47
2023-03-04T00:51:43.226Z,21.73
2023-03-04T00:52:24.874Z,20.50
2023-03-04T00:53:06.673Z,18.17
2023-03-04T00:53:48.658Z,20.37
2023-03-04T00:54:30.288Z,17.30
2023-03-04T00:55:11.982Z,18.67
2023-03-04T00:55:53.630Z,17.83
2023-03-04T00:56:35.272Z,18.50
2023-03-04T00:57:16.853Z,17.27
2023-03-04T00:57:58.449Z,19.77
2023-03-04T00:58:40.388Z,17.73
2023-03-04T00:59:22.006Z,18.87
2023-03-04T01:00:04.946Z,17.67
2023-03-04T01:00:46.628Z,18.40
2023-03-04T01:01:28.467Z,15.87
2023-03-04T01:02:10.724Z,17.93
2023-03-04T01:02:52.420Z,19.07
2023-03-04T01:03:34.660Z,16.47
2023-03-04T01:04:16.225Z,16.47
2023-03-04T01:04:57.841Z,19.60
2023-03-04T01:05:39.883Z,18.20
2023-03-04T01:06:21.595Z,18.07
2023-03-04T01:07:03.826Z,18.97
2023-03-04T01:07:45.512Z,18.07
2023-03-04T01:08:27.206Z,16.53
2023-03-04T01:09:08.897Z,16.53
2023-03-04T01:09:51.063Z,17.37
2023-03-04T01:10:33.528Z,17.27
2023-03-04T01:11:15.178Z,16.73
2023-03-04T01:11:57.169Z,18.00
2023-03-04T01:12:40.241Z,15.47
2023-03-04T01:13:21.854Z,17.30
2023-03-04T01:14:03.929Z,16.43
2023-03-04T01:14:47.156Z,17.00
2023-03-04T01:15:28.763Z,16.27
2023-03-04T01:16:10.998Z,15.67
2023-03-04T01:16:52.765Z,17.47
2023-03-04T01:17:34.394Z,15.50
2023-03-04T01:18:16.244Z,17.87
2023-03-04T01:18:57.877Z,17.73
2023-03-04T01:19:39.525Z,16.30
2023-03-04T01:20:21.178Z,16.80
2023-03-04T01:21:03.138Z,16.47
2023-03-04T01:21:44.948Z,16.03
2023-03-04T01:22:26.831Z,14.87
2023-03-04T01:23:08.473Z,13.17
2023-03-04T01:23:50.478Z,15.97
2023-03-04T01:24:32.228Z,14.70
2023-03-04T01:25:13.881Z,14.67
2023-03-04T01:25:55.636Z,16.70
2023-03-04T01:26:37.225Z,14.40
2023-03-04T01:27:18.881Z,14.63
2023-03-04T01:28:00.560Z,16.80
2023-03-04T01:28:42.286Z,14.63
2023-03-04T01:29:23.907Z,15.20
2023-03-04T01:30:06.406Z,14.63
2023-03-04T01:30:48.128Z,16.50
2023-03-04T01:31:29.924Z,15.17
2023-03-04T01:32:11.686Z,15.80
2023-03-04T01:32:53.380Z,15.77
2023-03-04T01:33:35.016Z,15.03
2023-03-04T01:34:18.174Z,15.30
2023-03-04T01:34:59.781Z,15.90
2023-03-04T01:35:41.552Z,15.30
2023-03-04T01:36:23.191Z,16.03
2023-03-04T01:37:05.284Z,13.60
2023-03-04T01:37:46.922Z,15.57
2023-03-04T01:38:28.611Z,15.47
2023-03-04T01:39:10.252Z,15.33
2023-03-04T01:39:51.812Z,16.07
2023-03-04T01:40:33.796Z,15.33
2023-03-04T01:41:19.000Z,18.13
2023-03-04T01:42:00.714Z,14.53
2023-03-04T01:42:42.459Z,15.53
2023-03-04T01:43:27.625Z,14.77
2023-03-04T01:44:10.922Z,16.60
2023-03-04T01:44:53.034Z,15.97
2023-03-04T01:45:35.708Z,16.23
2023-03-04T01:46:17.803Z,15.17
2023-03-04T01:46:59.556Z,17.33
2023-03-04T01:47:48.275Z,15.73
2023-03-04T01:48:37.270Z,15.57
2023-03-04T01:49:19.960Z,15.60
2023-03-04T01:50:04.774Z,15.10
2023-03-04T01:50:46.443Z,14.93
2023-03-04T01:51:28.080Z,15.27
2023-03-04T01:52:14.018Z,14.53
2023-03-04T01:52:55.748Z,14.60
2023-03-04T01:53:37.557Z,16.23
2023-03-04T01:54:20.431Z,15.17
2023-03-04T01:55:02.730Z,15.67
2023-03-04T01:55:44.522Z,16.57
2023-03-04T01:56:30.601Z,16.40
2023-03-04T01:57:23.951Z,15.83
2023-03-04T01:58:06.054Z,15.33
2023-03-04T01:59:07.375Z,17.07
2023-03-04T02:00:19.503Z,16.03
2023-03-04T02:01:01.178Z,16.07
2023-03-04T02:01:46.399Z,13.37
2023-03-04T02:02:27.996Z,16.07
2023-03-04T02:03:15.198Z,14.63
2023-03-04T02:03:56.841Z,14.27
2023-03-04T02:04:39.619Z,16.43
2023-03-04T02:05:22.301Z,15.17
2023-03-04T02:06:05.625Z,16.53
2023-03-04T02:06:49.006Z,15.30
2023-03-04T02:07:30.582Z,14.03
2023-03-04T02:08:15.138Z,14.57
2023-03-04T02:08:57.385Z,17.43
2023-03-04T02:09:38.983Z,16.27
2023-03-04T02:10:21.221Z,15.53
2023-03-04T02:11:03.083Z,15.80
2023-03-04T02:11:46.473Z,17.13
2023-03-04T02:12:28.130Z,15.23
2023-03-04T02:13:10.601Z,16.60
2023-03-04T02:13:52.795Z,14.33
2023-03-04T02:14:35.783Z,14.57
2023-03-04T02:15:18.253Z,14.40
2023-03-04T02:16:00.096Z,14.97
2023-03-04T02:16:42.555Z,16.87
2023-03-04T02:17:26.245Z,31.80
2023-03-04T02:18:22.230Z,47.13
2023-03-04T02:19:09.590Z,48.10
2023-03-04T02:20:02.922Z,50.57
2023-03-04T02:21:17.435Z,35.90
2023-03-04T02:21:59.157Z,21.40
2023-03-04T02:22:51.856Z,18.27
2023-03-04T02:23:44.632Z,16.33
2023-03-04T02:24:31.300Z,16.70
2023-03-04T02:25:22.227Z,16.60
2023-03-04T02:26:09.818Z,14.17
2023-03-04T02:26:51.455Z,15.90
2023-03-04T02:27:33.219Z,15.77
2023-03-04T02:28:15.182Z,14.57
2023-03-04T02:28:59.809Z,16.00
2023-03-04T02:29:41.491Z,13.70
2023-03-04T02:30:25.361Z,14.50
2023-03-04T02:31:07.196Z,14.70
2023-03-04T02:31:51.826Z,15.20
2023-03-04T02:32:33.800Z,14.90
2023-03-04T02:33:19.700Z,17.23
2023-03-04T02:34:05.010Z,16.17
2023-03-04T02:34:49.249Z,15.30
2023-03-04T02:35:30.972Z,18.03
2023-03-04T02:36:12.943Z,15.70
2023-03-04T02:36:56.194Z,15.10
2023-03-04T02:37:37.802Z,15.87
2023-03-04T02:38:19.454Z,14.87
2023-03-04T02:39:11.284Z,15.40
2023-03-04T02:39:53.161Z,15.07
2023-03-04T02:40:35.299Z,14.80
2023-03-04T02:41:21.734Z,13.70
2023-03-04T02:42:04.023Z,14.50
2023-03-04T02:42:47.761Z,14.10
2023-03-04T02:43:29.395Z,14.97
2023-03-04T02:44:31.745Z,13.27
2023-03-04T02:45:37.307Z,14.27
2023-03-04T02:46:21.518Z,15.27
2023-03-04T02:47:05.165Z,15.00
2023-03-04T02:47:47.533Z,14.67
2023-03-04T02:48:29.132Z,14.07
2023-03-04T02:49:10.806Z,14.20
2023-03-04T02:49:52.691Z,15.40
2023-03-04T02:50:43.535Z,17.77
2023-03-04T02:51:25.115Z,12.47
2023-03-04T02:52:12.851Z,14.13
2023-03-04T02:52:54.449Z,13.63
2023-03-04T02:53:36.080Z,13.37
2023-03-04T02:54:20.113Z,14.43
2023-03-04T02:55:01.761Z,14.20
2023-03-04T02:55:43.758Z,13.10
2023-03-04T02:56:26.272Z,13.27
2023-03-04T02:57:10.856Z,13.37
2023-03-04T02:57:55.614Z,14.00
2023-03-04T02:58:38.294Z,13.30
2023-03-04T02:59:21.795Z,12.93
2023-03-04T03:00:04.488Z,12.03
2023-03-04T03:00:46.089Z,14.27
2023-03-04T03:01:29.746Z,13.00
2023-03-04T03:02:11.663Z,13.33
2023-03-04T03:02:53.699Z,12.83
2023-03-04T03:03:35.558Z,12.77
2023-03-04T03:04:18.864Z,12.60
2023-03-04T03:05:01.928Z,12.20
2023-03-04T03:05:43.739Z,12.33
2023-03-04T03:06:25.518Z,13.03
2023-03-04T03:07:07.417Z,13.90
2023-03-04T03:07:49.125Z,12.73
2023-03-04T03:08:30.797Z,13.47
2023-03-04T03:09:12.552Z,14.57
2023-03-04T03:09:54.590Z,14.03
2023-03-04T03:10:36.399Z,14.87
2023-03-04T03:11:18.664Z,13.87
2023-03-04T03:12:00.310Z,14.27
2023-03-04T03:12:43.292Z,13.97
2023-03-04T03:13:25.917Z,12.53
2023-03-04T03:14:07.648Z,11.93
2023-03-04T03:14:49.283Z,12.87
2023-03-04T03:15:33.573Z,13.90
2023-03-04T03:16:15.256Z,13.23
2023-03-04T03:16:57.728Z,14.53
2023-03-04T03:17:40.300Z,13.00
2023-03-04T03:18:21.848Z,14.83
2023-03-04T03:19:03.594Z,14.20
2023-03-04T03:19:45.589Z,12.70
2023-03-04T03:20:27.311Z,12.43
2023-03-04T03:21:08.963Z,11.77
2023-03-04T03:21:50.645Z,12.37
2023-03-04T03:22:32.205Z,12.23
2023-03-04T03:23:13.864Z,13.60
2023-03-04T03:23:55.482Z,12.83
2023-03-04T03:24:37.075Z,13.63
2023-03-04T03:25:19.040Z,12.23
2023-03-04T03:26:01.742Z,14.20
2023-03-04T03:26:43.434Z,12.37
2023-03-04T03:27:25.102Z,11.90
2023-03-04T03:28:06.783Z,13.00
2023-03-04T03:28:48.518Z,12.53
2023-03-04T03:29:30.148Z,15.00
2023-03-04T03:30:14.628Z,14.53
2023-03-04T03:30:56.471Z,15.23
2023-03-04T03:31:38.163Z,13.57
2023-03-04T03:32:19.835Z,16.13
2023-03-04T03:33:05.742Z,14.07
2023-03-04T03:33:47.410Z,15.83
2023-03-04T03:34:29.108Z,16.47
2023-03-04T03:35:10.989Z,16.40
2023-03-04T03:35:52.765Z,14.50
2023-03-04T03:36:34.417Z,13.50
2023-03-04T03:37:16.322Z,12.80
2023-03-04T03:37:57.974Z,13.30
2023-03-04T03:38:39.624Z,13.30
2023-03-04T03:39:21.194Z,12.30
2023-03-04T03:40:03.800Z,14.30
2023-03-04T03:40:45.407Z,13.17
2023-03-04T03:41:27.074Z,13.70
2023-03-04T03:42:08.694Z,13.60
2023-03-04T03:42:50.313Z,14.63
2023-03-04T03:43:31.918Z,14.00
2023-03-04T03:44:13.586Z,13.90
2023-03-04T03:44:55.982Z,13.47
2023-03-04T03:45:37.684Z,14.43
2023-03-04T03:46:19.329Z,13.23
2023-03-04T03:47:00.925Z,13.87
2023-03-04T03:47:42.525Z,14.03
2023-03-04T03:48:24.155Z,12.53
2023-03-04T03:49:05.727Z,13.53
2023-03-04T03:49:47.381Z,12.30
2023-03-04T03:50:29.434Z,15.07
2023-03-04T03:51:11.112Z,12.87
2023-03-04T03:51:53.695Z,11.60
2023-03-04T03:52:35.404Z,13.87
2023-03-04T03:53:17.066Z,17.50
2023-03-04T03:53:58.703Z,15.93
2023-03-04T03:54:40.291Z,17.53
2023-03-04T03:55:22.173Z,15.53
2023-03-04T03:56:04.186Z,15.83
2023-03-04T03:56:45.853Z,15.13
2023-03-04T03:57:28.555Z,15.53
2023-03-04T03:58:10.125Z,14.43
2023-03-04T03:58:51.672Z,15.07
2023-03-04T03:59:33.301Z,14.50
2023-03-04T04:00:16.271Z,15.87
2023-03-04T04:00:58.528Z,14.87
2023-03-04T04:01:40.248Z,13.83
2023-03-04T04:02:22.637Z,14.07
2023-03-04T04:03:04.550Z,14.40
2023-03-04T04:03:46.410Z,15.20
2023-03-04T04:04:28.037Z,13.87
2023-03-04T04:05:10.868Z,12.50
2023-03-04T04:05:52.561Z,13.40
2023-03-04T04:06:34.149Z,15.33
2023-03-04T04:07:15.854Z,15.13
2023-03-04T04:07:57.564Z,14.20
2023-03-04T04:08:39.182Z,13.37
2023-03-04T04:09:20.825Z,14.67
2023-03-04T04:10:02.565Z,16.60
2023-03-04T04:10:44.531Z,13.93
2023-03-04T04:11:26.240Z,14.47
2023-03-04T04:12:08.276Z,14.13
2023-03-04T04:12:49.936Z,13.20
2023-03-04T04:13:31.515Z,13.10
2023-03-04T04:14:14.412Z,12.77
2023-03-04T04:14:56.035Z,12.93
2023-03-04T04:15:38.679Z,14.00
2023-03-04T04:16:20.584Z,14.20
2023-03-04T04:17:02.467Z,13.10
2023-03-04T04:17:44.149Z,14.83
2023-03-04T04:18:25.899Z,13.33
2023-03-04T04:19:08.044Z,13.83
2023-03-04T04:19:49.666Z,13.83
2023-03-04T04:20:31.812Z,15.07
2023-03-04T04:21:14.206Z,15.00
2023-03-04T04:21:55.900Z,13.77
2023-03-04T04:22:37.661Z,13.20
2023-03-04T04:23:19.383Z,13.53
2023-03-04T04:24:01.022Z,13.73
2023-03-04T04:24:42.828Z,14.20
2023-03-04T04:25:24.737Z,15.23
2023-03-04T04:26:06.429Z,13.80
2023-03-04T04:26:48.039Z,19.77
2023-03-04T04:27:29.677Z,18.60
2023-03-04T04:28:11.300Z,17.00
2023-03-04T04:28:52.989Z,17.87
2023-03-04T04:29:34.605Z,18.23
2023-03-04T04:30:16.344Z,16.60
2023-03-04T04:30:58.006Z,16.83
2023-03-04T04:31:39.853Z,19.67
2023-03-04T04:32:21.485Z,21.53
2023-03-04T04:33:04.754Z,20.30
2023-03-04T04:33:46.436Z,18.67
2023-03-04T04:34:28.101Z,18.53
2023-03-04T04:35:09.903Z,18.23
2023-03-04T04:35:51.659Z,17.13
2023-03-04T04:36:33.523Z,15.53
2023-03-04T04:37:15.184Z,16.50
2023-03-04T04:37:57.144Z,17.27
2023-03-04T04:38:38.904Z,16.47
2023-03-04T04:39:20.525Z,19.23
2023-03-04T04:40:03.645Z,18.93
2023-03-04T04:40:45.322Z,17.30
2023-03-04T04:41:31.965Z,19.77
2023-03-04T04:42:13.709Z,18.07
2023-03-04T04:42:55.294Z,17.87
2023-03-04T04:43:36.942Z,17.80
2023-03-04T04:44:18.713Z,19.40
2023-03-04T04:45:00.359Z,20.53
2023-03-04T04:45:42.002Z,21.27
2023-03-04T04:46:23.787Z,19.57
2023-03-04T04:47:07.224Z,18.40
2023-03-04T04:47:48.947Z,18.40
2023-03-04T04:48:30.577Z,20.93
2023-03-04T04:49:12.242Z,19.40
2023-03-04T04:49:53.838Z,20.53
2023-03-04T04:50:35.525Z,21.93
2023-03-04T04:51:17.185Z,19.70
2023-03-04T04:51:58.797Z,21.97
2023-03-04T04:52:40.479Z,22.43
2023-03-04T04:53:22.140Z,20.77
2023-03-04T04:54:04.545Z,19.50
2023-03-04T04:54:46.244Z,20.53
2023-03-04T04:55:28.305Z,19.40
2023-03-04T04:56:16.243Z,22.13
2023-03-04T04:56:57.808Z,23.63
2023-03-04T04:57:39.482Z,19.30
2023-03-04T04:58:21.179Z,21.00
2023-03-04T04:59:05.507Z,19.47
2023-03-04T04:59:47.105Z,18.37
2023-03-04T05:00:28.745Z,16.93
2023-03-04T05:01:10.514Z,21.63
2023-03-04T05:01:52.212Z,19.03
2023-03-04T05:02:37.579Z,18.30
2023-03-04T05:03:21.423Z,17.07
2023-03-04T05:04:04.557Z,20.97
2023-03-04T05:04:46.397Z,20.27
2023-03-04T05:05:28.007Z,19.00
2023-03-04T05:06:11.307Z,18.77
2023-03-04T05:06:53.003Z,21.27
2023-03-04T05:07:34.776Z,18.77
2023-03-04T05:08:16.538Z,19.23
2023-03-04T05:08:58.167Z,21.37
2023-03-04T05:09:39.773Z,18.70
2023-03-04T05:10:21.374Z,19.30
2023-03-04T05:11:04.598Z,22.47
2023-03-04T05:11:46.354Z,21.67
2023-03-04T05:12:27.981Z,20.33
2023-03-04T05:13:09.569Z,19.83
2023-03-04T05:13:51.532Z,21.93
2023-03-04T05:14:33.167Z,19.80
2023-03-04T05:15:14.840Z,19.50
2023-03-04T05:15:57.145Z,19.67
2023-03-04T05:16:38.772Z,20.40
2023-03-04T05:17:20.344Z,19.37
2023-03-04T05:18:01.937Z,19.03
2023-03-04T05:18:43.734Z,18.37
2023-03-04T05:19:25.350Z,19.53
2023-03-04T05:20:07.375Z,19.10
2023-03-04T05:20:53.198Z,20.13
2023-03-04T05:21:34.891Z,18.77
2023-03-04T05:22:16.508Z,19.83
2023-03-04T05:22:58.236Z,21.17
2023-03-04T05:23:41.807Z,20.50
2023-03-04T05:24:23.384Z,19.23
2023-03-04T05:25:05.581Z,18.67
2023-03-04T05:25:47.838Z,17.93
2023-03-04T05:26:29.556Z,17.13
2023-03-04T05:27:11.405Z,19.53
2023-03-04T05:27:53.119Z,19.27
2023-03-04T05:28:35.414Z,19.63
2023-03-04T05:29:17.042Z,18.30
2023-03-04T05:30:01.612Z,17.73
2023-03-04T05:30:44.930Z,17.88
2023-03-04T05:31:26.731Z,19.93
2023-03-04T05:32:08.568Z,20.30
2023-03-04T05:32:50.207Z,24.47
2023-03-04T05:33:31.860Z,19.40
2023-03-04T05:34:13.430Z,18.47
2023-03-04T05:34:55.079Z,18.40
2023-03-04T05:35:37.517Z,19.43
2023-03-04T05:36:19.174Z,18.73
2023-03-04T05:37:00.788Z,20.93
2023-03-04T05:37:42.500Z,22.00
2023-03-04T05:38:25.605Z,19.38
2023-03-04T05:39:07.249Z,19.63
2023-03-04T05:39:48.904Z,23.17
2023-03-04T05:40:30.612Z,21.40
2023-03-04T05:41:12.208Z,18.10
2023-03-04T05:41:53.780Z,19.63
2023-03-04T05:42:35.333Z,20.58
2023-03-04T05:43:17.210Z,24.23
2023-03-04T05:43:58.798Z,27.07
2023-03-04T05:44:40.382Z,22.35
2023-03-04T05:45:22.628Z,22.80
2023-03-04T05:46:04.770Z,23.60
2023-03-04T05:46:46.534Z,23.93
2023-03-04T05:47:28.110Z,22.37
2023-03-04T05:48:09.856Z,21.73
2023-03-04T05:48:53.088Z,20.33
2023-03-04T05:49:34.717Z,18.53
2023-03-04T05:50:16.600Z,20.88
2023-03-04T05:51:00.177Z,19.80
2023-03-04T05:51:41.841Z,19.73
2023-03-04T05:52:23.450Z,22.30
2023-03-04T05:53:05.163Z,20.67
2023-03-04T05:53:47.303Z,20.38
2023-03-04T05:54:28.899Z,18.90
2023-03-04T05:55:11.050Z,19.88
2023-03-04T05:55:53.059Z,20.10
2023-03-04T05:56:34.904Z,22.03
2023-03-04T05:57:16.561Z,19.88
2023-03-04T05:57:58.425Z,20.43
2023-03-04T05:58:40.016Z,18.00
2023-03-04T05:59:21.643Z,18.83
2023-03-04T06:00:09.397Z,20.23
2023-03-04T06:01:00.428Z,20.50
2023-03-04T06:01:41.978Z,17.73
2023-03-04T06:02:23.696Z,20.23
2023-03-04T06:03:05.416Z,19.77
2023-03-04T06:03:49.220Z,18.57
2023-03-04T06:04:30.966Z,19.37
2023-03-04T06:05:14.236Z,21.63
2023-03-04T06:05:56.069Z,18.50
2023-03-04T06:06:37.697Z,20.48
2023-03-04T06:07:19.302Z,20.20
2023-03-04T06:08:00.952Z,21.03
2023-03-04T06:08:42.644Z,20.23
2023-03-04T06:09:24.325Z,20.17
2023-03-04T06:10:07.257Z,18.52
2023-03-04T06:10:52.931Z,18.80
2023-03-04T06:11:36.313Z,21.88
2023-03-04T06:12:18.123Z,19.15
2023-03-04T06:12:59.833Z,19.13
2023-03-04T06:13:41.493Z,19.92
2023-03-04T06:14:23.167Z,17.95
2023-03-04T06:15:06.155Z,18.17
2023-03-04T06:15:48.026Z,18.40
2023-03-04T06:16:29.676Z,19.15
2023-03-04T06:17:11.351Z,20.17
2023-03-04T06:17:52.980Z,22.08
2023-03-04T06:18:34.652Z,19.05
2023-03-04T06:19:16.266Z,18.53
2023-03-04T06:19:57.910Z,17.02
2023-03-04T06:20:39.505Z,17.98
2023-03-04T06:21:21.190Z,18.63
2023-03-04T06:22:02.790Z,17.75
2023-03-04T06:22:44.397Z,20.83
2023-03-04T06:23:26.895Z,18.50
2023-03-04T06:24:08.739Z,20.13
2023-03-04T06:24:50.547Z,19.83
2023-03-04T06:25:33.253Z,19.60
2023-03-04T06:26:15.710Z,19.87
2023-03-04T06:26:57.454Z,20.88
2023-03-04T06:27:39.172Z,17.73
2023-03-04T06:28:21.197Z,17.90
2023-03-04T06:29:02.834Z,18.98
2023-03-04T06:29:44.576Z,17.42
2023-03-04T06:30:26.406Z,19.67
2023-03-04T06:31:08.146Z,18.52
2023-03-04T06:31:49.813Z,17.43
2023-03-04T06:32:31.508Z,19.83
2023-03-04T06:33:13.106Z,20.83
2023-03-04T06:33:54.950Z,20.00
2023-03-04T06:34:37.311Z,21.92
2023-03-04T06:35:19.287Z,20.90
2023-03-04T06:36:01.354Z,20.27
2023-03-04T06:36:43.156Z,25.13
2023-03-04T06:37:24.760Z,21.35
2023-03-04T06:38:06.395Z,21.70
2023-03-04T06:38:47.997Z,21.50
2023-03-04T06:39:29.651Z,18.88
2023-03-04T06:40:12.318Z,19.05
2023-03-04T06:40:57.119Z,20.93
2023-03-04T06:41:39.093Z,25.63
2023-03-04T06:42:20.725Z,23.20
2023-03-04T06:43:02.402Z,20.73
2023-03-04T06:43:44.154Z,21.90
2023-03-04T06:44:25.844Z,20.33
2023-03-04T06:45:09.237Z,21.38
2023-03-04T06:45:50.871Z,23.58
2023-03-04T06:46:36.292Z,24.23
2023-03-04T06:47:18.922Z,25.35
2023-03-04T06:48:00.541Z,21.92
2023-03-04T06:48:42.249Z,21.83
2023-03-04T06:49:24.107Z,21.73
2023-03-04T06:50:06.256Z,20.67
2023-03-04T06:50:47.913Z,20.48
2023-03-04T06:51:30.431Z,21.27
2023-03-04T06:52:12.936Z,22.75
2023-03-04T06:52:57.342Z,20.43
2023-03-04T06:53:40.150Z,21.50
2023-03-04T06:54:21.940Z,19.52
2023-03-04T06:55:04.213Z,21.17
2023-03-04T06:55:47.106Z,23.17
2023-03-04T06:56:28.748Z,18.90
2023-03-04T06:57:10.501Z,18.08
2023-03-04T06:57:52.137Z,18.30
2023-03-04T06:58:34.014Z,19.10
2023-03-04T06:59:15.780Z,19.55
2023-03-04T06:59:57.465Z,20.00
2023-03-04T07:00:39.121Z,17.55
2023-03-04T07:01:24.311Z,19.67
2023-03-04T07:02:06.578Z,20.98
2023-03-04T07:02:48.239Z,20.65
2023-03-04T07:03:29.883Z,19.73
2023-03-04T07:04:14.091Z,21.48
2023-03-04T07:04:55.814Z,20.05
2023-03-04T07:05:37.422Z,17.60
2023-03-04T07:06:21.395Z,19.02
2023-03-04T07:07:03.037Z,21.17
2023-03-04T07:07:44.638Z,22.88
2023-03-04T07:08:26.250Z,21.02
2023-03-04T07:09:08.111Z,20.13
2023-03-04T07:09:49.734Z,20.92
2023-03-04T07:10:31.403Z,17.95
2023-03-04T07:11:14.429Z,18.10
2023-03-04T07:11:56.072Z,19.40
2023-03-04T07:12:37.851Z,20.58
2023-03-04T07:13:19.422Z,18.25
2023-03-04T07:14:01.089Z,20.23
2023-03-04T07:14:42.735Z,21.33
2023-03-04T07:15:24.349Z,19.48
2023-03-04T07:16:08.294Z,20.60
2023-03-04T07:16:49.930Z,23.02
2023-03-04T07:17:31.520Z,24.05
2023-03-04T07:18:13.221Z,21.70
2023-03-04T07:18:54.865Z,21.05
2023-03-04T07:19:36.998Z,20.83
2023-03-04T07:20:18.728Z,21.67
2023-03-04T07:21:00.282Z,21.27
2023-03-04T07:21:41.850Z,23.85
2023-03-04T07:22:23.427Z,23.90
2023-03-04T07:23:05.180Z,25.70
2023-03-04T07:23:47.244Z,23.23
2023-03-04T07:24:28.981Z,22.67
2023-03-04T07:25:10.728Z,23.50
2023-03-04T07:25:52.388Z,24.25
2023-03-04T07:26:34.104Z,20.70
2023-03-04T07:27:15.755Z,22.02
2023-03-04T07:27:57.400Z,22.77
2023-03-04T07:28:39.360Z,24.75
2023-03-04T07:29:20.938Z,23.73
2023-03-04T07:30:02.578Z,23.98
2023-03-04T07:30:44.497Z,26.00
2023-03-04T07:31:31.559Z,27.45
2023-03-04T07:32:13.545Z,23.98
2023-03-04T07:32:58.487Z,23.35
2023-03-04T07:33:40.166Z,21.92
2023-03-04T07:34:21.848Z,19.98
2023-03-04T07:35:04.200Z,21.95
2023-03-04T07:35:46.018Z,22.92
2023-03-04T07:36:28.172Z,21.65
2023-03-04T07:37:10.077Z,21.80
2023-03-04T07:37:51.688Z,20.58
2023-03-04T07:38:33.391Z,20.90
2023-03-04T07:39:15.038Z,21.58
2023-03-04T07:39:56.584Z,20.38
2023-03-04T07:40:38.582Z,29.45
2023-03-04T07:41:21.837Z,25.65
2023-03-04T07:42:03.548Z,23.17
2023-03-04T07:42:55.863Z,21.50
2023-03-04T07:43:37.542Z,22.90
2023-03-04T07:44:19.176Z,22.70
2023-03-04T07:45:01.906Z,22.70
2023-03-04T07:45:43.607Z,22.42
2023-03-04T07:46:25.827Z,27.55
2023-03-04T07:47:07.462Z,26.42
2023-03-04T07:47:49.669Z,29.75
2023-03-04T07:48:31.459Z,26.45
2023-03-04T07:49:13.946Z,25.35
2023-03-04T07:49:56.137Z,29.15
2023-03-04T07:50:37.779Z,25.75
2023-03-04T07:51:21.525Z,29.33
2023-03-04T07:52:05.287Z,25.95
2023-03-04T07:52:50.811Z,25.77
2023-03-04T07:53:33.399Z,27.23
2023-03-04T07:54:15.119Z,27.40
2023-03-04T07:54:56.922Z,25.83
2023-03-04T07:55:38.635Z,25.38
2023-03-04T07:56:23.841Z,26.58
2023-03-04T07:57:05.622Z,25.67
2023-03-04T07:57:48.186Z,26.60
2023-03-04T07:58:29.999Z,24.08
2023-03-04T07:59:11.628Z,24.42
2023-03-04T07:59:53.305Z,25.25
2023-03-04T08:00:34.910Z,25.25
2023-03-04T08:01:22.752Z,25.48
2023-03-04T08:02:04.500Z,25.20
2023-03-04T08:02:46.285Z,26.90
2023-03-04T08:03:29.518Z,22.30
2023-03-04T08:04:11.203Z,21.65
2023-03-04T08:04:52.811Z,21.67
2023-03-04T08:05:34.372Z,22.23
2023-03-04T08:06:17.740Z,23.02
2023-03-04T08:06:59.359Z,24.08
2023-03-04T08:07:41.228Z,23.77
2023-03-04T08:08:22.851Z,23.88
2023-03-04T08:09:06.798Z,23.40
2023-03-04T08:09:48.509Z,21.70
2023-03-04T08:10:30.104Z,24.13
2023-03-04T08:11:14.709Z,23.10
2023-03-04T08:11:56.321Z,21.75
2023-03-04T08:12:37.882Z,21.02
2023-03-04T08:13:19.544Z,20.77
2023-03-04T08:14:01.494Z,19.65
2023-03-04T08:14:43.182Z,22.52
2023-03-04T08:15:27.220Z,24.17
2023-03-04T08:16:13.128Z,21.85
2023-03-04T08:16:54.838Z,23.08
2023-03-04T08:17:36.458Z,24.65
2023-03-04T08:18:18.132Z,21.58
2023-03-04T08:19:01.940Z,21.45
2023-03-04T08:19:43.786Z,23.52
2023-03-04T08:20:25.509Z,21.70
2023-03-04T08:21:12.186Z,24.50
2023-03-04T08:21:53.800Z,25.48
2023-03-04T08:22:35.483Z,21.92
2023-03-04T08:23:17.110Z,21.92
2023-03-04T08:24:02.516Z,20.38
2023-03-04T08:24:44.251Z,21.33
2023-03-04T08:25:25.891Z,19.58
2023-03-04T08:26:10.649Z,20.05
2023-03-04T08:26:52.277Z,20.13
2023-03-04T08:27:34.019Z,20.35
2023-03-04T08:28:15.809Z,21.77
2023-03-04T08:29:00.755Z,23.02
2023-03-04T08:29:43.052Z,23.85
2023-03-04T08:30:25.238Z,25.45
2023-03-04T08:31:08.153Z,25.60
2023-03-04T08:31:52.088Z,25.17
2023-03-04T08:32:34.433Z,25.10
2023-03-04T08:33:16.276Z,24.73
2023-03-04T08:33:58.019Z,26.55
2023-03-04T08:34:40.804Z,23.35
2023-03-04T08:35:22.522Z,21.80
2023-03-04T08:36:04.527Z,24.65
2023-03-04T08:36:47.241Z,24.77
2023-03-04T08:37:31.964Z,22.42
2023-03-04T08:38:13.613Z,22.88
2023-03-04T08:38:55.315Z,23.27
2023-03-04T08:39:37.729Z,21.85
2023-03-04T08:40:19.594Z,23.58
2023-03-04T08:41:03.717Z,22.23
2023-03-04T08:41:46.423Z,22.80
2023-03-04T08:42:28.058Z,25.05
2023-03-04T08:43:10.286Z,26.77
2023-03-04T08:43:51.918Z,24.90
2023-03-04T08:44:33.544Z,24.27
2023-03-04T08:45:15.223Z,27.15
2023-03-04T08:45:56.925Z,23.90
2023-03-04T08:46:40.712Z,23.48
2023-03-04T08:47:22.883Z,27.38
2023-03-04T08:48:05.144Z,30.33
2023-03-04T08:48:47.202Z,30.48
2023-03-04T08:49:29.213Z,24.80
2023-03-04T08:50:11.396Z,23.13
2023-03-04T08:50:53.457Z,25.58
2023-03-04T08:51:35.888Z,23.90
2023-03-04T08:52:17.699Z,26.58
2023-03-04T08:52:59.359Z,28.60
2023-03-04T08:53:41.622Z,25.73
2023-03-04T08:54:23.290Z,24.20
2023-03-04T08:55:05.462Z,25.30
2023-03-04T08:55:47.262Z,24.70
2023-03-04T08:56:28.928Z,23.10
2023-03-04T08:57:10.642Z,25.83
2023-03-04T08:57:52.290Z,29.73
2023-03-04T08:58:34.027Z,30.75
2023-03-04T08:59:15.706Z,30.75
2023-03-04T08:59:57.375Z,27.50
2023-03-04T09:00:43.032Z,29.17
2023-03-04T09:01:24.818Z,28.67
2023-03-04T09:02:07.193Z,30.20
2023-03-04T09:02:48.849Z,30.38
2023-03-04T09:03:31.644Z,28.83
2023-03-04T09:04:13.342Z,31.15
2023-03-04T09:04:54.979Z,31.15
2023-03-04T09:05:36.652Z,29.55
2023-03-04T09:06:18.845Z,36.85
2023-03-04T09:07:00.499Z,33.60
2023-03-04T09:07:42.129Z,34.38